Time;durP1;ratioP1;P1;durP2;ratioP2;P2;SDS_P1;SDS_P2;PMS_P1;PMS_P2;Temp;Humidity;BMP_temperature;BMP_pressure;BME280_temperature;BME280_humidity;BME280_pressure;Samples;Min_cycle;Max_cycle;Signal;HPM_P1;HPM_P2
2021/03/09 00:01:43;;;;;;;11.53;7.12;;;;;;;7.36;39.30;100612.27;2437361;81;25646;-75
2021/03/09 00:05:11;;;;;;;12.18;6.47;;;;;;;7.33;39.31;100614.73;2437288;81;25662;-75
2021/03/09 00:08:34;;;;;;;11.22;6.12;;;;;;;7.30;39.32;100615.48;2437474;81;25702;-74
2021/03/09 00:11:56;;;;;;;10.18;5.80;;;;;;;7.30;39.33;100621.97;2436882;81;25611;-72
2021/03/09 00:15:19;;;;;;;11.25;6.45;;;;;;;7.28;39.34;100626.20;2437178;80;25596;-81
2021/03/09 00:18:44;;;;;;;11.70;6.70;;;;;;;7.27;39.36;100622.26;2437003;80;25609;-76
2021/03/09 00:22:10;;;;;;;11.03;5.90;;;;;;;7.26;39.37;100623.09;2467464;80;25627;-73
2021/03/09 00:25:39;;;;;;;8.78;6.00;;;;;;;7.24;39.38;100628.20;2486063;79;25507;-79
2021/03/09 00:28:55;;;;;;;11.55;6.60;;;;;;;7.23;39.39;100630.75;2482615;79;25954;-81
2021/03/09 00:32:19;;;;;;;9.25;6.60;;;;;;;7.19;39.43;100625.84;2486009;79;25224;-79
2021/03/09 00:35:41;;;;;;;12.07;6.72;;;;;;;7.17;39.44;100626.18;2287327;82;25633;-83
2021/03/09 00:39:05;;;;;;;12.95;6.78;;;;;;;7.16;39.44;100623.13;2276059;86;25672;-77
2021/03/09 00:42:47;;;;;;;10.40;6.00;;;;;;;7.19;39.47;100621.04;2605444;76;25464;-84
2021/03/09 00:46:34;;;;;;;12.28;6.20;;;;;;;7.14;39.45;100630.36;2559581;77;25478;-72
2021/03/09 00:49:56;;;;;;;12.28;6.42;;;;;;;7.12;39.47;100630.69;2438281;80;25683;-81
2021/03/09 00:53:26;;;;;;;12.13;7.28;;;;;;;7.10;39.49;100631.94;2482293;78;25675;-73
2021/03/09 00:56:57;;;;;;;9.20;6.10;;;;;;;7.07;39.53;100635.28;2468545;80;25657;-82
2021/03/09 01:00:21;;;;;;;14.20;7.00;;;;;;;7.04;39.55;100633.85;2513454;78;25625;-72
2021/03/09 01:03:43;;;;;;;14.05;6.87;;;;;;;7.03;39.55;100638.58;2468231;80;25571;-82
2021/03/09 01:07:13;;;;;;;11.57;7.25;;;;;;;7.01;39.57;100632.42;2492423;78;25657;-82
2021/03/09 01:10:34;;;;;;;;;;;;;;;6.99;39.58;100632.80;2471114;80;25778;-73
2021/03/09 01:13:56;;;;;;;11.15;5.70;;;;;;;6.98;39.62;100624.52;2450341;80;25337;-76
2021/03/09 01:17:19;;;;;;;12.73;7.28;;;;;;;6.94;39.64;100623.92;2460535;80;25591;-72
2021/03/09 01:20:43;;;;;;;11.68;6.87;;;;;;;6.93;39.65;100627.34;2459939;80;25432;-76
2021/03/09 01:24:05;;;;;;;14.10;6.90;;;;;;;6.92;39.66;100624.29;2429422;80;25236;-72
2021/03/09 01:27:27;;;;;;;13.20;7.60;;;;;;;6.91;39.68;100625.50;2459889;80;25217;-74
2021/03/09 01:30:49;;;;;;;11.22;7.25;;;;;;;6.88;39.67;100620.19;2289835;86;25699;-72
2021/03/09 01:34:10;;;;;;;11.68;6.22;;;;;;;6.86;39.70;100628.80;2333053;84;25779;-86
2021/03/09 01:37:32;;;;;;;11.20;6.80;;;;;;;6.85;39.73;100617.96;2333020;84;25423;-76
2021/03/09 01:40:54;;;;;;;11.90;6.90;;;;;;;6.84;39.74;100623.06;2313265;84;25627;-85
2021/03/09 01:44:16;;;;;;;13.48;7.05;;;;;;;6.82;39.75;100620.84;2343083;84;25578;-75
2021/03/09 01:47:45;;;;;;;12.68;6.40;;;;;;;6.79;39.76;100624.17;2319617;84;25407;-86
2021/03/09 01:51:10;;;;;;;12.40;6.30;;;;;;;6.78;39.78;100633.16;2320367;83;25530;-75
2021/03/09 01:54:38;;;;;;;9.88;6.28;;;;;;;6.77;39.78;100630.10;2383456;78;25780;-72
2021/03/09 01:58:13;;;;;;;10.32;6.55;;;;;;;6.75;39.80;100627.84;2467326;80;25348;-72
2021/03/09 02:01:38;;;;;;;11.25;6.58;;;;;;;6.72;39.83;100622.14;2407189;81;25317;-72
2021/03/09 02:05:08;;;;;;;11.12;6.55;;;;;;;6.70;39.82;100629.38;2436669;81;25613;-72
2021/03/09 02:08:31;;;;;;;11.43;6.65;;;;;;;6.69;39.84;100636.26;2408172;81;25632;-78
2021/03/09 02:12:29;;;;;;;9.20;6.37;;;;;;;6.67;39.88;100627.94;2438728;80;25769;-77
2021/03/09 02:16:08;;;;;;;11.88;7.00;;;;;;;6.65;39.87;100629.18;2466385;80;25269;-71
2021/03/09 02:20:08;;;;;;;11.15;6.28;;;;;;;6.64;39.88;100632.56;2467313;80;25895;-77
2021/03/09 02:24:10;;;;;;;10.90;6.10;;;;;;;6.61;39.89;100630.76;2467328;80;25674;-73
2021/03/09 02:28:13;;;;;;;13.65;6.67;;;;;;;6.58;39.92;100635.80;2467272;80;25614;-73
2021/03/09 02:31:37;;;;;;;11.22;6.05;;;;;;;6.55;39.92;100633.08;2467204;80;25405;-75
2021/03/09 02:35:03;;;;;;;10.75;5.92;;;;;;;6.54;39.95;100632.98;2464286;80;25535;-72
2021/03/09 02:39:09;;;;;;;12.85;7.15;;;;;;;6.52;39.97;100637.23;2438002;80;25639;-72
2021/03/09 02:42:37;;;;;;;9.60;5.78;;;;;;;6.49;40.00;100636.69;2390033;81;25729;-77
2021/03/09 02:46:00;;;;;;;18.05;6.97;;;;;;;6.47;39.99;100642.20;2391031;82;25580;-77
2021/03/09 02:49:25;;;;;;;13.25;6.70;;;;;;;6.45;40.00;100643.85;2391738;82;25785;-72
2021/03/09 02:53:12;;;;;;;13.77;7.60;;;;;;;6.48;40.04;100646.58;2531949;77;34824;-72
2021/03/09 02:56:40;;;;;;;9.35;6.53;;;;;;;6.53;40.02;100655.42;2484801;78;25700;-74
2021/03/09 03:00:11;;;;;;;11.05;5.60;;;;;;;6.55;39.97;100650.33;2515905;78;25577;-74
2021/03/09 03:03:35;;;;;;;13.50;6.30;;;;;;;6.52;40.00;100658.84;2484675;78;25741;-83
2021/03/09 03:06:58;;;;;;;13.08;6.90;;;;;;;6.49;39.96;100657.41;2484826;78;25672;-73
2021/03/09 03:10:20;;;;;;;9.43;6.08;;;;;;;6.47;40.01;100662.03;2516232;78;25561;-77
2021/03/09 03:13:57;;;;;;;10.72;6.62;;;;;;;6.44;40.02;100655.42;2516225;78;25642;-80
2021/03/09 03:17:19;;;;;;;8.90;5.58;;;;;;;6.41;40.06;100651.39;2455902;80;25696;-78
2021/03/09 03:20:48;;;;;;;12.15;6.20;;;;;;;6.37;40.06;100651.25;2456066;80;25592;-72
2021/03/09 03:24:12;;;;;;;9.43;5.70;;;;;;;6.35;40.06;100647.73;2455923;79;25373;-73
2021/03/09 03:27:36;;;;;;;8.28;5.90;;;;;;;6.32;40.07;100654.48;2451168;80;25612;-78
2021/03/09 03:31:04;;;;;;;8.03;5.12;;;;;;;6.30;40.08;100649.21;2426011;80;25367;-74
2021/03/09 03:34:26;;;;;;;13.78;6.47;;;;;;;6.27;40.10;100649.07;2424939;80;25719;-74
2021/03/09 03:37:49;;;;;;;14.07;6.72;;;;;;;6.24;40.12;100659.28;2455952;80;25575;-72
2021/03/09 03:45:39;;;;;;;14.90;7.63;;;;;;;6.24;40.18;100661.88;2593938;76;25558;-80
2021/03/09 03:49:08;;;;;;;11.20;6.58;;;;;;;6.18;40.19;100658.16;2562235;77;25367;-72
2021/03/09 03:52:55;;;;;;;;;;;;;;;6.14;40.19;100655.42;2564628;77;25601;-74
2021/03/09 03:56:37;;;;;;;11.90;5.78;;;;;;;6.13;40.23;100660.51;2426499;81;25744;-81
2021/03/09 04:00:05;;;;;;;10.20;6.42;;;;;;;6.10;40.23;100662.95;2424611;81;25811;-73
2021/03/09 04:03:34;;;;;;;13.72;7.08;;;;;;;6.07;40.28;100664.98;2426807;81;25565;-72
2021/03/09 04:07:11;;;;;;;13.27;6.23;;;;;;;6.10;40.29;100662.95;2554844;77;25545;-76
2021/03/09 04:10:59;;;;;;;12.45;5.87;;;;;;;6.04;40.32;100670.43;2516245;78;25561;-72
2021/03/09 04:15:07;;;;;;;13.10;6.08;;;;;;;6.02;40.34;100670.38;2514077;78;25634;-86
2021/03/09 04:18:34;;;;;;;11.38;6.40;;;;;;;6.00;40.35;100660.34;2405509;81;25407;-82
2021/03/09 04:22:01;;;;;;;11.53;5.87;;;;;;;5.99;40.33;100659.88;2405497;79;25688;-78
2021/03/09 04:25:24;;;;;;;14.35;7.28;;;;;;;5.97;40.37;100658.91;2405222;81;25727;-78
2021/03/09 04:28:50;;;;;;;12.82;7.40;;;;;;;5.97;40.40;100655.44;2405409;81;25499;-73
2021/03/09 04:32:27;;;;;;;;;;;;;;;;;;;;;
2021/03/09 04:36:06;;;;;;;17.93;9.70;;;;;;;5.99;40.40;100655.11;2548965;76;25563;-77
2021/03/09 04:39:30;;;;;;;23.18;10.80;;;;;;;5.93;40.40;100651.83;2509577;78;25619;-82
2021/03/09 04:42:52;;;;;;;21.50;10.80;;;;;;;5.92;40.40;100655.20;2509498;77;25325;-75
2021/03/09 04:46:14;;;;;;;26.15;12.88;;;;;;;5.90;40.41;100642.17;2509786;78;25445;-81
2021/03/09 04:49:37;;;;;;;26.80;13.88;;;;;;;5.89;40.43;100644.70;2509739;78;25536;-76
2021/03/09 04:53:01;;;;;;;34.00;15.48;;;;;;;5.88;40.45;100649.00;2509727;78;25377;-74
2021/03/09 04:56:22;;;;;;;28.90;15.72;;;;;;;5.87;40.45;100647.62;2509776;78;25491;-76
2021/03/09 04:59:43;;;;;;;29.32;15.75;;;;;;;5.86;40.46;100649.32;2477611;78;25662;-80
2021/03/09 05:03:06;;;;;;;27.40;15.28;;;;;;;5.86;40.48;100646.73;2509494;78;25433;-73
2021/03/09 05:06:28;;;;;;;34.50;14.93;;;;;;;5.85;40.48;100646.27;2509623;78;25394;-77
2021/03/09 05:09:49;;;;;;;28.75;14.93;;;;;;;5.84;40.46;100649.68;2509484;78;25386;-71
2021/03/09 05:13:11;;;;;;;28.57;16.05;;;;;;;5.85;40.47;100653.15;2427321;78;25592;-82
2021/03/09 05:16:34;;;;;;;28.02;15.55;;;;;;;5.86;40.46;100662.27;2472180;78;25591;-74
2021/03/09 05:19:57;;;;;;;28.02;15.58;;;;;;;5.85;40.47;100663.09;2465009;80;25630;-75
2021/03/09 05:23:19;;;;;;;27.80;15.10;;;;;;;5.87;40.46;100668.31;2434656;80;25576;-73
2021/03/09 05:26:40;;;;;;;28.00;15.85;;;;;;;5.88;40.42;100670.11;2465152;80;25645;-72
2021/03/09 05:30:05;;;;;;;26.55;14.87;;;;;;;5.89;40.42;100674.05;2408220;80;25528;-73
2021/03/09 05:33:30;;;;;;;28.45;14.45;;;;;;;5.91;40.40;100669.84;2293884;85;25636;-80
2021/03/09 05:36:51;;;;;;;27.77;15.38;;;;;;;5.96;40.36;100674.37;2294271;86;25669;-75
2021/03/09 05:40:19;;;;;;;26.35;14.75;;;;;;;6.00;40.36;100676.29;2294516;82;25766;-75
2021/03/09 05:43:49;;;;;;;24.85;13.62;;;;;;;6.04;40.34;100674.31;2270929;86;25745;-77
2021/03/09 05:47:16;;;;;;;23.67;13.03;;;;;;;6.10;40.26;100679.78;2293387;86;25672;-83
2021/03/09 05:50:43;;;;;;;24.92;13.93;;;;;;;6.17;40.23;100679.66;2351117;80;25626;-73
2021/03/09 05:54:08;;;;;;;21.52;12.53;;;;;;;6.23;40.18;100677.35;2254466;86;25463;-76
2021/03/09 05:57:38;;;;;;;24.27;13.10;;;;;;;6.30;40.11;100680.70;2233962;87;25785;-83
2021/03/09 06:01:12;;;;;;;;;;;;;;;;;;;;;
2021/03/09 06:04:40;;;;;;;21.13;13.00;;;;;;;6.48;39.96;100676.36;2529439;76;25552;-83
2021/03/09 06:08:02;;;;;;;20.95;11.88;;;;;;;6.52;39.91;100681.27;2494677;78;25753;-74
2021/03/09 06:11:23;;;;;;;21.52;11.70;;;;;;;6.58;39.87;100687.61;2495130;78;25677;-73
2021/03/09 06:15:02;;;;;;;20.15;12.15;;;;;;;6.66;39.84;100690.95;2494918;78;25673;-79
2021/03/09 06:18:25;;;;;;;22.67;12.35;;;;;;;6.74;39.74;100689.56;2478219;79;25610;-73
2021/03/09 06:21:52;;;;;;;25.05;12.73;;;;;;;6.83;39.67;100692.16;2450951;80;25642;-73
2021/03/09 06:25:17;;;;;;;19.95;11.68;;;;;;;6.93;39.60;100693.44;2450983;79;25741;-80
2021/03/09 06:28:39;;;;;;;18.15;10.90;;;;;;;7.03;39.54;100697.31;2450630;80;25315;-81
2021/03/09 06:32:05;;;;;;;17.40;11.28;;;;;;;7.13;39.43;100705.95;2450846;80;25547;-72
2021/03/09 06:35:38;;;;;;;21.95;11.57;;;;;;;7.23;39.37;100713.31;2450700;80;25619;-77
2021/03/09 06:39:00;;;;;;;16.32;9.88;;;;;;;7.33;39.27;100715.88;2450898;80;25150;-75
2021/03/09 06:42:36;;;;;;;19.77;10.25;;;;;;;7.44;39.22;100717.20;2450688;80;25848;-82
2021/03/09 06:46:19;;;;;;;17.75;10.30;;;;;;;7.52;39.09;100718.39;2450582;80;25399;-75
2021/03/09 06:49:52;;;;;;;21.48;9.38;;;;;;;7.62;39.03;100723.55;2450696;80;25605;-73
2021/03/09 06:53:28;;;;;;;18.60;9.25;;;;;;;7.75;38.92;100724.94;2449807;80;25604;-72
2021/03/09 06:56:52;;;;;;;15.55;9.10;;;;;;;7.88;38.83;100728.92;2466394;79;26224;-74
2021/03/09 07:00:17;;;;;;;14.55;8.75;;;;;;;8.01;38.71;100729.88;2487005;78;25597;-72
2021/03/09 07:03:42;;;;;;;13.08;9.15;;;;;;;8.15;38.59;100735.61;2423120;80;25683;-75
2021/03/09 07:07:07;;;;;;;12.63;8.10;;;;;;;8.29;38.46;100739.63;2433057;80;25694;-77
2021/03/09 07:10:31;;;;;;;10.50;7.97;;;;;;;8.41;38.37;100737.95;2422169;81;25276;-77
2021/03/09 07:13:55;;;;;;;15.50;8.60;;;;;;;8.53;38.24;100742.30;2420984;80;25581;-84
2021/03/09 07:17:21;;;;;;;12.68;8.45;;;;;;;8.64;38.11;100742.30;2420329;80;25667;-83
2021/03/09 07:25:11;;;;;;;10.40;6.65;;;;;;;8.87;37.80;100737.91;2381492;76;25615;-77
2021/03/09 07:28:38;;;;;;;12.37;7.30;;;;;;;9.00;37.66;100728.84;2394761;82;25641;-72
2021/03/09 07:32:02;;;;;;;9.28;6.55;;;;;;;9.15;37.46;100730.70;2405819;82;25736;-82
2021/03/09 07:35:28;;;;;;;7.83;6.03;;;;;;;9.29;37.32;100729.00;2383633;82;25567;-74
2021/03/09 07:38:55;;;;;;;14.18;6.65;;;;;;;9.43;37.14;100732.52;2385143;82;25749;-82
2021/03/09 07:42:18;;;;;;;9.30;6.28;;;;;;;9.61;36.98;100736.14;2384795;82;25519;-78
2021/03/09 07:45:43;;;;;;;11.25;6.72;;;;;;;9.81;36.76;100737.22;2406579;82;25670;-81
2021/03/09 07:49:08;;;;;;;8.53;5.53;;;;;;;10.16;36.54;100735.75;2406339;81;25513;-83
2021/03/09 07:52:29;;;;;;;6.80;5.83;;;;;;;12.15;35.81;100741.56;2385294;82;25509;-78
2021/03/09 07:56:13;;;;;;;11.05;5.22;;;;;;;14.40;33.92;100737.44;2385119;82;31218;-73
2021/03/09 07:59:40;;;;;;;6.67;4.95;;;;;;;15.94;32.35;100747.02;2407170;82;25157;-82
2021/03/09 08:03:05;;;;;;;7.25;5.72;;;;;;;17.45;30.80;100733.23;2360788;83;25600;-75
2021/03/09 08:06:31;;;;;;;5.85;5.17;;;;;;;19.25;29.30;100748.67;2383846;82;25599;-79
2021/03/09 08:09:54;;;;;;;8.18;5.35;;;;;;;21.12;27.85;100749.05;2382698;82;25623;-77
2021/03/09 08:13:19;;;;;;;8.33;5.75;;;;;;;23.08;26.20;100754.05;2406779;82;25582;-74
2021/03/09 08:16:44;;;;;;;9.23;6.10;;;;;;;24.69;24.75;100762.89;2385784;82;25650;-77
2021/03/09 08:20:34;;;;;;;5.47;4.97;;;;;;;26.17;23.46;100764.96;2396926;80;25813;-72
2021/03/09 08:24:01;;;;;;;7.35;4.35;;;;;;;27.48;22.23;100773.92;2331042;84;25442;-81
2021/03/09 08:27:35;;;;;;;6.87;5.50;;;;;;;28.84;21.21;100774.77;2305135;84;25698;-81
2021/03/09 08:31:20;;;;;;;5.05;4.35;;;;;;;29.98;20.32;100776.92;2340877;83;25789;-81
2021/03/09 08:56:51;;;;;;;4.33;3.45;;;;;;;33.15;17.58;100792.99;2458129;79;27113;-85
2021/03/09 09:00:34;;;;;;;6.33;2.80;;;;;;;33.30;17.75;100781.17;2329143;84;25725;-83
2021/03/09 09:04:25;;;;;;;3.65;3.12;;;;;;;33.45;15.32;100791.97;2330366;84;25710;-82
2021/03/09 09:08:41;;;;;;;;;;;;;;;;;;;;;
2021/03/09 09:34:12;;;;;;;;;;;;;;;;;;;;;
2021/03/09 09:49:02;;;;;;;10.85;3.50;;;;;;;25.13;14.83;100752.72;2463163;78;25295;-86
2021/03/09 09:53:34;;;;;;;9.70;2.67;;;;;;;25.87;14.68;100761.08;2320197;84;25392;-87
2021/03/09 10:20:28;;;;;;;5.17;2.17;;;;;;;28.13;13.60;100749.34;2467543;78;25572;-86
2021/03/09 10:28:25;;;;;;;10.45;4.28;;;;;;;27.33;15.05;100737.90;2615306;74;26032;-81
2021/03/09 10:32:00;;;;;;;5.37;3.47;;;;;;;27.59;16.73;100740.86;2478602;78;25704;-74
2021/03/09 10:35:22;;;;;;;4.37;2.77;;;;;;;28.14;16.13;100745.71;2513280;78;25511;-80
2021/03/09 10:38:43;;;;;;;5.08;1.98;;;;;;;28.88;15.41;100739.27;2554899;77;25620;-76
2021/03/09 10:42:37;;;;;;;5.53;2.27;;;;;;;29.65;14.92;100735.14;2508138;78;25639;-80
2021/03/09 10:46:03;;;;;;;3.77;1.50;;;;;;;30.28;14.34;100743.57;2554710;77;25545;-79
2021/03/09 10:49:42;;;;;;;3.55;1.72;;;;;;;30.88;13.98;100737.69;2508417;78;25643;-83
2021/03/09 10:53:07;;;;;;;3.98;1.75;;;;;;;31.41;13.46;100743.70;2554036;77;25632;-84
2021/03/09 10:56:31;;;;;;;5.22;2.33;;;;;;;31.86;13.33;100732.06;2566967;76;26169;-82
2021/03/09 10:59:52;;;;;;;2.62;2.17;;;;;;;31.75;13.04;100733.16;2549682;77;25641;-75
2021/03/09 11:03:19;;;;;;;5.53;1.42;;;;;;;30.77;12.97;100730.18;2538285;77;25676;-82
2021/03/09 11:06:40;;;;;;;2.10;1.30;;;;;;;29.82;13.09;100732.47;2538746;78;25351;-77
2021/03/09 11:10:05;;;;;;;2.87;1.40;;;;;;;29.98;13.09;100724.98;2539288;77;25536;-83
2021/03/09 11:13:26;;;;;;;2.27;1.57;;;;;;;30.40;12.93;100727.72;2523777;78;25609;-83
2021/03/09 11:16:56;;;;;;;2.58;1.87;;;;;;;30.83;12.77;100724.08;2494125;79;25677;-72
2021/03/09 11:20:28;;;;;;;3.65;1.55;;;;;;;31.14;12.60;100719.19;2466684;79;25597;-82
2021/03/09 11:23:51;;;;;;;3.15;1.72;;;;;;;31.44;12.47;100716.59;2493237;79;25682;-83
2021/03/09 11:27:13;;;;;;;4.10;1.60;;;;;;;31.48;12.35;100714.95;2493282;78;25736;-79
2021/03/09 11:30:37;;;;;;;4.45;1.60;;;;;;;31.33;12.25;100714.52;2493902;79;25767;-82
2021/03/09 11:33:58;;;;;;;2.80;1.70;;;;;;;30.75;12.30;100719.09;2493631;79;25707;-81
2021/03/09 11:37:19;;;;;;;5.08;1.72;;;;;;;30.63;12.29;100709.86;2493451;78;25652;-83
2021/03/09 11:40:47;;;;;;;4.65;1.47;;;;;;;30.02;12.43;100709.08;2440702;79;25563;-76
2021/03/09 11:44:13;;;;;;;2.25;1.95;;;;;;;29.96;12.53;100703.53;2492648;79;25286;-75
2021/03/09 11:47:37;;;;;;;3.22;1.92;;;;;;;29.91;12.48;100702.92;2324805;85;25252;-76
2021/03/09 11:51:06;;;;;;;3.20;1.87;;;;;;;29.79;12.53;100704.88;2382731;83;25757;-79
2021/03/09 11:54:31;;;;;;;5.65;1.87;;;;;;;29.39;12.53;100700.14;2382103;82;25930;-78
2021/03/09 11:58:35;;;;;;;3.83;1.45;;;;;;;28.82;12.67;100688.56;2616553;74;25441;-81
2021/03/09 12:01:59;;;;;;;2.17;1.17;;;;;;;28.31;12.85;100692.20;2509246;77;25678;-77
2021/03/09 12:05:35;;;;;;;4.67;1.50;;;;;;;27.92;12.89;100687.70;2511239;78;25748;-73
2021/03/09 12:08:59;;;;;;;4.28;1.70;;;;;;;28.01;12.87;100679.70;2499419;78;25734;-87
2021/03/09 12:12:22;;;;;;;5.08;1.47;;;;;;;28.15;12.98;100678.64;2509599;78;25655;-82
2021/03/09 12:16:06;;;;;;;;;;;;;;;;;;;;;
2021/03/09 12:34:43;;;;;;;2.08;1.17;;;;;;;24.23;16.16;100643.36;2332198;83;25739;-85
2021/03/09 12:53:51;;;;;;;7.22;1.40;;;;;;;23.80;16.27;100618.81;2445845;79;25716;-78
2021/03/09 12:57:17;;;;;;;5.47;1.50;;;;;;;23.64;15.72;100618.77;2461379;79;25777;-92
2021/03/09 13:11:48;;;;;;;17.27;3.25;;;;;;;23.05;16.69;100612.73;2520798;76;25238;-80
2021/03/09 13:15:32;;;;;;;10.32;2.75;;;;;;;23.56;16.89;100611.46;2405715;80;25862;-79
2021/03/09 13:19:12;;;;;;;16.37;2.02;;;;;;;23.94;17.29;100615.77;2400260;80;25630;-81
2021/03/09 13:22:52;;;;;;;5.72;2.20;;;;;;;24.25;17.53;100601.58;2414734;81;25798;-80
2021/03/09 13:26:19;;;;;;;4.15;1.75;;;;;;;24.48;17.62;100607.13;2476573;79;25332;-78
2021/03/09 13:29:45;;;;;;;2.50;1.22;;;;;;;24.59;16.42;100608.59;2465298;78;25569;-79
2021/03/09 13:33:24;;;;;;;;;;;;;;;;;;;;;
2021/03/09 13:36:57;;;;;;;8.20;1.15;;;;;;;23.69;14.74;100592.95;2438100;80;25494;-79
2021/03/09 13:40:26;;;;;;;3.83;0.85;;;;;;;23.51;14.28;100599.59;2380090;81;25647;-79
2021/03/09 13:44:19;;;;;;;1.20;1.00;;;;;;;23.39;13.90;100595.03;2385864;81;25632;-81
2021/03/09 13:47:43;;;;;;;1.98;1.25;;;;;;;23.25;13.60;100594.06;2387007;82;25660;-78
2021/03/09 13:51:22;;;;;;;1.30;1.00;;;;;;;22.94;13.39;100588.63;2379949;83;25718;-78
2021/03/09 13:54:48;;;;;;;1.20;0.85;;;;;;;22.37;13.35;100584.11;2381969;81;25575;-77
2021/03/09 13:58:39;;;;;;;3.17;1.10;;;;;;;22.03;13.32;100582.59;2383500;82;25729;-78
2021/03/09 14:02:30;;;;;;;2.22;1.75;;;;;;;21.76;13.29;100585.80;2210040;87;25631;-80
2021/03/09 14:10:15;;;;;;;1.62;1.27;;;;;;;21.38;13.54;100582.08;2516313;78;29579;-79
2021/03/09 14:13:43;;;;;;;1.67;1.22;;;;;;;21.25;13.59;100577.85;2397742;81;26030;-78
2021/03/09 14:17:23;;;;;;;3.85;1.40;;;;;;;21.21;13.58;100576.58;2407233;80;25767;-77
2021/03/09 14:20:57;;;;;;;2.08;1.32;;;;;;;20.98;13.62;100574.30;2285751;85;25694;-78
2021/03/09 14:24:29;;;;;;;2.40;1.32;;;;;;;20.76;13.64;100572.91;2170389;91;25627;-77
2021/03/09 14:28:34;;;;;;;2.12;1.55;;;;;;;20.45;13.61;100574.65;2543710;76;30910;-77
2021/03/09 14:32:01;;;;;;;2.70;1.12;;;;;;;20.09;13.65;100576.00;2505059;78;25777;-77
2021/03/09 14:35:39;;;;;;;;;;;;;;;;;;;;;
2021/03/09 14:39:05;;;;;;;1.07;0.85;;;;;;;19.79;13.78;100570.16;2546343;76;25633;-80
2021/03/09 14:42:37;;;;;;;4.97;1.30;;;;;;;19.99;13.82;100558.48;2550199;76;25810;-79
2021/03/09 14:46:24;;;;;;;2.87;1.05;;;;;;;19.72;13.66;100559.23;2550979;76;25676;-79
2021/03/09 14:49:52;;;;;;;1.80;1.52;;;;;;;19.20;13.98;100567.62;2521596;76;25713;-77
2021/03/09 14:53:44;;;;;;;5.50;1.05;;;;;;;18.76;14.04;100565.34;2302370;84;25735;-81
2021/03/09 14:57:17;;;;;;;1.90;1.10;;;;;;;18.29;14.12;100557.23;2251986;85;25702;-77
2021/03/09 15:05:15;;;;;;;3.42;1.17;;;;;;;17.54;14.67;100553.08;2182296;90;25851;-77
2021/03/09 15:19:32;;;;;;;8.08;1.82;;;;;;;16.31;16.55;100552.14;2498756;79;30926;-78
2021/03/09 15:23:25;;;;;;;3.62;1.80;;;;;;;16.24;18.22;100553.88;2462122;80;25662;-78
2021/03/09 15:27:14;;;;;;;5.97;1.80;;;;;;;16.31;20.86;100548.19;2369402;83;25655;-78
2021/03/09 15:41:59;;;;;;;4.47;1.70;;;;;;;16.17;21.74;100532.37;2542421;77;30904;-78
2021/03/09 15:45:27;;;;;;;3.62;1.42;;;;;;;15.64;20.80;100527.72;2511607;78;25802;-77
2021/03/09 15:48:54;;;;;;;6.00;2.05;;;;;;;15.22;20.17;100528.33;2396603;81;25730;-78
2021/03/09 15:52:19;;;;;;;3.17;1.55;;;;;;;14.76;19.73;100542.41;2358234;82;25752;-78
2021/03/09 15:55:41;;;;;;;5.70;1.45;;;;;;;14.35;19.55;100545.04;2359272;82;25711;-77
2021/03/09 15:59:05;;;;;;;5.42;2.67;;;;;;;14.10;19.53;100537.75;2390125;82;25703;-78
2021/03/09 16:02:29;;;;;;;3.58;1.55;;;;;;;13.91;19.56;100538.84;2389968;82;25858;-78
2021/03/09 16:05:56;;;;;;;4.60;1.52;;;;;;;13.73;19.57;100541.65;2390240;82;25215;-73
2021/03/09 16:09:19;;;;;;;6.37;2.10;;;;;;;13.54;19.64;100542.72;2390109;82;25728;-79
2021/03/09 16:12:43;;;;;;;3.02;2.15;;;;;;;13.38;19.74;100545.98;2389964;82;25773;-77
2021/03/09 16:16:19;;;;;;;3.65;2.60;;;;;;;13.18;19.96;100549.13;2390501;82;25278;-76
2021/03/09 16:19:49;;;;;;;4.12;3.00;;;;;;;12.99;20.15;100544.45;2379677;81;25765;-75
2021/03/09 16:23:36;;;;;;;4.90;2.62;;;;;;;12.81;20.31;100547.65;2411042;82;25766;-76
2021/03/09 16:26:53;;;;;;;8.93;2.35;;;;;;;12.62;20.52;100558.23;2405766;81;25781;-77
2021/03/09 16:30:30;;;;;;;5.28;3.15;;;;;;;12.45;20.70;100550.48;2409586;81;25644;-81
2021/03/09 16:34:03;;;;;;;9.35;2.83;;;;;;;12.31;20.87;100557.19;2408993;82;25639;-77
2021/03/09 16:38:25;;;;;;;2.90;2.08;;;;;;;12.15;21.01;100557.30;2418014;79;25692;-80
2021/03/09 17:01:35;;;;;;;4.17;1.90;;;;;;;12.37;22.75;100570.38;2480767;78;27215;-81
2021/03/09 17:04:59;;;;;;;4.37;2.12;;;;;;;12.28;22.88;100578.91;2405256;80;25740;-76
2021/03/09 17:08:23;;;;;;;4.42;2.37;;;;;;;12.23;23.05;100580.14;2404848;81;25408;-79
2021/03/09 17:11:50;;;;;;;4.85;1.95;;;;;;;12.20;23.26;100578.77;2403333;81;25514;-80
2021/03/09 17:15:17;;;;;;;4.92;2.00;;;;;;;12.18;23.39;100583.50;2415161;81;25663;-77
2021/03/09 17:19:02;;;;;;;;;;;;;;;;;;;;;
2021/03/09 17:23:14;;;;;;;;;;;;;;;;;;;;;
2021/03/09 17:26:28;;;;;;;3.92;2.75;;;;;;;12.03;23.87;100584.96;2272828;85;25356;-80
2021/03/09 17:29:49;;;;;;;2.62;2.40;;;;;;;12.00;23.99;100587.50;2269413;87;25598;-79
2021/03/09 17:33:25;;;;;;;3.85;2.83;;;;;;;11.95;24.14;100586.97;2226901;87;25318;-78
2021/03/09 17:37:05;;;;;;;5.22;2.08;;;;;;;11.90;24.27;100583.36;2227031;87;25666;-79
2021/03/09 17:40:33;;;;;;;2.42;1.95;;;;;;;11.85;24.36;100590.23;2205938;88;25749;-78
2021/03/09 17:43:56;;;;;;;5.80;2.33;;;;;;;11.80;24.51;100594.88;2227218;88;25667;-78
2021/03/09 17:47:54;;;;;;;3.57;2.43;;;;;;;11.79;24.65;100597.05;2616558;74;26145;-77
2021/03/09 17:51:42;;;;;;;5.28;2.27;;;;;;;11.70;24.73;100597.25;2504788;77;25755;-78
2021/03/09 17:55:17;;;;;;;3.92;2.92;;;;;;;11.66;24.87;100602.84;2508259;78;25554;-79
2021/03/09 18:13:33;;;;;;;6.47;3.57;;;;;;;11.43;25.27;100604.91;2469291;79;27170;-76
2021/03/09 18:22:21;;;;;;;4.53;3.17;;;;;;;11.28;25.50;100613.27;2335377;84;25679;-76
2021/03/09 18:41:38;;;;;;;8.07;3.60;;;;;;;11.06;25.92;100604.44;2463869;79;25605;-75
2021/03/09 18:45:24;;;;;;;7.75;3.90;;;;;;;10.97;25.98;100611.62;2425151;81;25699;-80
2021/03/09 19:04:55;;;;;;;8.57;4.77;;;;;;;10.77;26.39;100599.37;2554479;76;25766;-76
2021/03/09 19:08:20;;;;;;;9.23;4.75;;;;;;;10.70;26.42;100609.58;2515209;77;25554;-76
2021/03/09 19:11:51;;;;;;;12.10;4.83;;;;;;;10.67;26.46;100608.22;2321975;84;25983;-75
2021/03/09 19:16:02;;;;;;;7.40;4.87;;;;;;;10.67;26.58;100603.01;2586775;74;27833;-80
2021/03/09 19:19:30;;;;;;;8.08;5.67;;;;;;;10.60;26.59;100600.66;2522707;77;25728;-80
2021/03/09 19:22:54;;;;;;;7.83;5.78;;;;;;;10.57;26.68;100596.66;2523906;77;25829;-80
2021/03/09 19:26:19;;;;;;;6.85;4.62;;;;;;;10.54;26.71;100601.78;2510293;78;25339;-77
2021/03/09 19:29:41;;;;;;;7.70;5.12;;;;;;;10.52;26.78;100603.45;2471861;77;25706;-78
2021/03/09 19:33:20;;;;;;;6.45;5.25;;;;;;;10.50;26.79;100604.73;2582377;76;25839;-75
2021/03/09 19:36:44;;;;;;;6.55;4.72;;;;;;;10.47;26.86;100608.55;2569134;75;25655;-77
2021/03/09 19:40:08;;;;;;;11.10;5.28;;;;;;;10.43;26.95;100605.41;2571467;76;25530;-75
2021/03/09 19:43:49;;;;;;;7.40;5.30;;;;;;;10.41;26.99;100610.98;2454274;78;25790;-78
2021/03/09 19:47:42;;;;;;;;;;;;;;;;;;;;;
2021/03/09 19:51:49;;;;;;;12.07;5.50;;;;;;;10.37;27.09;100606.11;2550102;77;26325;-79
2021/03/09 19:55:47;;;;;;;5.85;4.72;;;;;;;10.30;27.09;100613.30;2506384;78;25644;-75
2021/03/09 19:59:13;;;;;;;9.10;5.75;;;;;;;10.27;27.19;100613.20;2506312;78;25702;-76
2021/03/09 20:07:30;;;;;;;6.35;4.58;;;;;;;10.20;27.32;100615.14;2370124;82;25691;-74
2021/03/09 20:11:01;;;;;;;7.85;5.28;;;;;;;10.15;27.37;100616.72;2298229;84;25820;-75
2021/03/09 20:14:53;;;;;;;9.70;5.57;;;;;;;10.14;27.38;100616.27;2504849;77;25587;-76
2021/03/09 20:18:22;;;;;;;11.28;5.90;;;;;;;10.05;27.43;100611.66;2478768;78;25744;-78
2021/03/09 20:22:01;;;;;;;9.25;5.40;;;;;;;10.02;27.38;100621.10;2427651;81;25763;-81
2021/03/09 20:25:35;;;;;;;7.80;4.75;;;;;;;9.98;27.44;100619.25;2474130;80;25621;-79
2021/03/09 20:29:16;;;;;;;7.10;5.30;;;;;;;9.93;27.46;100616.52;2516358;78;25263;-77
2021/03/09 20:32:43;;;;;;;6.50;5.25;;;;;;;9.90;27.51;100616.42;2493265;77;25866;-80
2021/03/09 20:36:24;;;;;;;8.38;5.30;;;;;;;9.87;27.54;100617.63;2472010;78;25661;-76
2021/03/09 20:39:56;;;;;;;17.55;6.58;;;;;;;9.83;27.55;100617.08;2473756;79;25429;-77